createdAt,value
2023-01-20T02:08:49.144Z,8.50
2023-01-20T02:11:16.404Z,8.60
2023-01-20T02:13:43.756Z,9.30
2023-01-20T02:16:16.854Z,9.00
2023-01-20T02:19:16.202Z,8.50
2023-01-20T02:21:55.709Z,9.00
2023-01-20T02:24:56.759Z,8.70
2023-01-20T02:27:42.421Z,7.70
2023-01-20T02:30:35.651Z,8.20
2023-01-20T02:33:24.042Z,9.10
2023-01-20T02:36:04.094Z,9.30
2023-01-20T02:41:08.744Z,7.80
2023-01-20T02:43:45.844Z,8.90
2023-01-20T02:46:26.899Z,9.50
2023-01-20T02:48:58.764Z,9.30
2023-01-20T02:51:27.560Z,8.60
2023-01-20T02:54:01.052Z,7.90
2023-01-20T02:56:29.350Z,8.40
2023-01-20T02:59:01.608Z,8.80
2023-01-20T03:01:34.501Z,7.40
2023-01-20T03:04:02.417Z,9.10
2023-01-20T03:06:32.887Z,9.20
2023-01-20T03:09:01.321Z,8.70
2023-01-20T03:11:29.648Z,8.60
2023-01-20T03:14:17.082Z,8.50
2023-01-20T03:16:48.443Z,9.60
2023-01-20T03:19:15.578Z,8.40
2023-01-20T03:21:42.733Z,8.10
2023-01-20T03:24:09.895Z,8.60
2023-01-20T03:26:37.033Z,8.80
2023-01-20T03:29:08.494Z,8.90
2023-01-20T03:31:43.800Z,9.00
2023-01-20T03:34:13.033Z,9.60
2023-01-20T03:36:40.905Z,8.30
2023-01-20T03:39:08.047Z,8.20
2023-01-20T03:41:56.706Z,8.40
2023-01-20T03:44:39.222Z,8.50
2023-01-20T03:47:11.279Z,9.30
2023-01-20T03:49:47.039Z,8.10
2023-01-20T03:52:19.823Z,9.00
2023-01-20T03:54:57.727Z,7.70
2023-01-20T03:57:32.249Z,8.40
2023-01-20T03:59:59.401Z,8.50
2023-01-20T04:02:26.792Z,8.60
2023-01-20T04:04:54.524Z,8.40
2023-01-20T04:07:23.162Z,7.80
2023-01-20T04:09:52.826Z,8.00
2023-01-20T04:12:19.974Z,8.00
2023-01-20T04:14:47.131Z,7.50
2023-01-20T04:17:14.278Z,7.50
2023-01-20T04:19:41.430Z,7.90
2023-01-20T04:22:28.860Z,8.60
2023-01-20T04:25:11.880Z,9.30
2023-01-20T04:27:39.036Z,7.40
2023-01-20T04:30:07.266Z,8.10
2023-01-20T04:32:34.476Z,8.00
2023-01-20T04:35:01.631Z,8.70
2023-01-20T04:37:28.775Z,8.90
2023-01-20T04:39:55.928Z,9.50
2023-01-20T04:42:23.084Z,7.20
2023-01-20T04:44:50.146Z,8.50
2023-01-20T04:47:17.284Z,8.00
2023-01-20T04:49:44.439Z,9.10
2023-01-20T04:52:11.711Z,7.80
2023-01-20T04:54:38.842Z,6.00
2023-01-20T04:57:05.995Z,7.80
2023-01-20T04:59:33.022Z,8.30
2023-01-20T05:02:00.270Z,8.10
2023-01-20T05:04:27.456Z,8.10
2023-01-20T05:06:54.608Z,7.40
2023-01-20T05:09:21.872Z,7.60
2023-01-20T05:11:49.016Z,7.40
2023-01-20T05:14:16.169Z,7.50
2023-01-20T05:16:43.734Z,8.00
2023-01-20T05:19:12.616Z,6.60
2023-01-20T05:21:39.889Z,7.90
2023-01-20T05:24:07.549Z,8.00
2023-01-20T05:26:34.712Z,8.50
2023-01-20T05:29:02.997Z,8.40
2023-01-20T05:31:30.182Z,7.50
2023-01-20T05:33:57.696Z,7.50
2023-01-20T05:36:24.854Z,8.70
2023-01-20T05:38:52.004Z,9.00
2023-01-20T05:41:19.154Z,7.50
2023-01-20T05:43:46.308Z,6.80
2023-01-20T05:46:13.686Z,8.10
2023-01-20T05:48:41.023Z,7.80
2023-01-20T05:51:08.586Z,8.10
2023-01-20T05:53:35.750Z,7.60
2023-01-20T05:56:03.789Z,7.00
2023-01-20T05:58:30.967Z,7.00
2023-01-20T06:01:12.421Z,7.90
2023-01-20T06:03:39.890Z,8.50
2023-01-20T06:06:09.094Z,8.10
2023-01-20T06:08:36.183Z,6.80
2023-01-20T06:11:03.341Z,8.00
2023-01-20T06:13:30.481Z,8.00
2023-01-20T06:15:58.284Z,7.70
2023-01-20T06:18:25.502Z,6.70
2023-01-20T06:20:52.760Z,6.80
2023-01-20T06:23:19.906Z,7.60
2023-01-20T06:25:47.059Z,7.00
2023-01-20T06:28:14.208Z,7.20
2023-01-20T06:30:43.503Z,6.70
2023-01-20T06:33:11.177Z,7.00
2023-01-20T06:35:38.445Z,6.00
2023-01-20T06:38:05.589Z,7.60
2023-01-20T06:40:33.060Z,7.80
2023-01-20T06:43:00.201Z,6.80
2023-01-20T06:45:27.357Z,6.50
2023-01-20T06:47:54.512Z,7.00
2023-01-20T06:50:21.656Z,8.00
2023-01-20T06:52:48.814Z,7.20
2023-01-20T06:55:16.325Z,6.90
2023-01-20T06:57:43.831Z,6.30
2023-01-20T07:00:11.632Z,6.10
2023-01-20T07:02:38.793Z,7.40
2023-01-20T07:05:08.467Z,6.60
2023-01-20T07:07:35.621Z,7.30
2023-01-20T07:10:03.632Z,6.30
2023-01-20T07:12:30.740Z,6.70
2023-01-20T07:14:57.896Z,6.90
2023-01-20T07:17:25.054Z,8.10
2023-01-20T07:19:52.206Z,7.10
2023-01-20T07:22:19.363Z,6.60
2023-01-20T07:24:46.398Z,6.80
2023-01-20T07:27:15.397Z,7.40
2023-01-20T07:29:42.548Z,8.10
2023-01-20T07:32:09.714Z,7.10
2023-01-20T07:34:36.849Z,7.10
2023-01-20T07:37:04.202Z,6.40
2023-01-20T07:39:31.366Z,7.50
2023-01-20T07:41:58.512Z,6.70
2023-01-20T07:44:25.667Z,8.50
2023-01-20T07:46:52.915Z,7.00
2023-01-20T07:49:20.068Z,7.10
2023-01-20T07:51:47.235Z,6.60
2023-01-20T07:54:14.576Z,7.40
2023-01-20T07:56:41.745Z,7.40
2023-01-20T07:59:10.417Z,6.40
2023-01-20T12:20:54.065Z,11.20
2023-01-20T12:23:46.429Z,12.50
2023-01-20T12:26:15.112Z,11.40
2023-01-20T12:28:43.587Z,12.80
2023-01-20T12:31:10.891Z,14.80
2023-01-20T12:33:48.734Z,16.50
2023-01-20T12:36:38.001Z,17.10
2023-01-20T12:39:33.416Z,11.50
2023-01-20T12:42:55.252Z,11.00
2023-01-20T12:45:28.123Z,11.50
2023-01-20T12:48:08.504Z,11.10
2023-01-20T12:51:14.319Z,10.50
2023-01-20T12:54:01.888Z,10.10
2023-01-20T12:56:40.211Z,11.50
2023-01-20T12:59:17.271Z,12.40
2023-01-20T13:01:48.120Z,12.60
2023-01-20T13:05:11.029Z,9.10
2023-01-20T13:07:53.901Z,9.10
2023-01-20T13:10:36.312Z,9.40
2023-01-20T13:13:12.474Z,9.10
2023-01-20T13:15:42.711Z,8.50
2023-01-20T13:18:24.395Z,8.70
2023-01-20T13:20:51.995Z,9.10
2023-01-20T13:23:23.077Z,8.00
2023-01-20T13:25:50.251Z,7.60
2023-01-20T13:28:27.810Z,8.40
2023-01-20T13:30:57.592Z,8.40
2023-01-20T13:33:34.968Z,9.10
2023-01-20T13:36:23.309Z,8.90
2023-01-20T13:38:51.974Z,8.70
2023-01-20T13:41:56.218Z,10.80
2023-01-20T13:44:41.439Z,10.20
2023-01-20T13:47:10.292Z,10.00
2023-01-20T13:49:49.832Z,10.80
2023-01-20T13:52:51.087Z,11.10
2023-01-20T13:55:30.625Z,10.80
2023-01-20T13:57:57.880Z,9.90
2023-01-20T14:00:25.032Z,9.90
2023-01-20T14:02:53.346Z,9.70
2023-01-20T14:05:28.857Z,9.60
2023-01-20T14:07:56.671Z,8.30
2023-01-20T14:10:23.995Z,8.50
2023-01-20T14:12:51.134Z,9.50
2023-01-20T14:15:48.971Z,9.00
2023-01-20T14:18:17.084Z,7.70
2023-01-20T14:20:46.594Z,8.30
2023-01-20T14:23:30.544Z,9.10
2023-01-20T14:26:03.000Z,8.40
2023-01-20T14:28:30.276Z,7.70
2023-01-20T14:31:18.398Z,7.20
2023-01-20T14:33:58.667Z,7.70
2023-01-20T14:36:26.793Z,8.40
2023-01-20T14:38:58.504Z,7.10
2023-01-20T14:41:28.212Z,7.30
2023-01-20T14:43:55.673Z,7.60
2023-01-20T14:46:24.173Z,7.80
2023-01-20T14:48:52.158Z,8.00
2023-01-20T14:51:19.377Z,7.00
2023-01-20T14:53:47.351Z,7.90
2023-01-20T14:56:19.657Z,8.60
2023-01-20T14:58:49.093Z,8.60
2023-01-20T15:01:23.944Z,7.90
2023-01-20T15:03:58.284Z,7.70
2023-01-20T15:06:25.870Z,8.30
2023-01-20T15:09:05.995Z,8.60
2023-01-20T15:11:34.595Z,7.70
2023-01-20T15:14:01.860Z,8.60
2023-01-20T15:16:46.989Z,7.90
2023-01-20T15:19:17.665Z,9.40
2023-01-20T15:21:51.455Z,8.20
2023-01-20T15:24:23.624Z,7.30
2023-01-20T15:26:52.558Z,7.50
2023-01-20T15:29:39.934Z,7.70
2023-01-20T15:32:11.015Z,7.90
2023-01-20T15:34:38.127Z,7.60
2023-01-20T15:37:09.909Z,7.80
2023-01-20T15:39:37.044Z,8.60
2023-01-20T15:42:04.187Z,8.40
2023-01-20T20:43:03.470Z,17.40
2023-01-20T20:45:30.520Z,16.50
2023-01-20T20:47:57.476Z,18.00
2023-01-20T20:50:25.027Z,18.40
2023-01-20T20:52:52.280Z,18.40
2023-01-20T20:55:19.332Z,18.50
2023-01-20T20:57:46.383Z,18.20
2023-01-20T21:00:15.383Z,20.30
2023-01-20T21:02:43.600Z,18.10
2023-01-20T21:05:10.908Z,17.60
2023-01-20T21:07:39.594Z,19.30
2023-01-20T21:10:07.144Z,18.30
2023-01-20T21:12:34.612Z,19.70
2023-01-20T21:15:01.616Z,19.10
2023-01-20T21:17:28.915Z,17.00
2023-01-20T21:19:55.968Z,18.70
2023-01-20T21:22:23.119Z,19.70
2023-01-20T21:24:50.372Z,19.20
2023-01-20T21:27:17.328Z,18.90
2023-01-20T21:29:46.002Z,18.50
2023-01-20T21:32:12.946Z,20.80
2023-01-20T21:34:39.999Z,20.40
2023-01-20T21:37:08.074Z,20.60
2023-01-20T21:39:35.126Z,19.90
2023-01-20T21:42:05.451Z,20.80
2023-01-20T21:44:35.782Z,20.00
2023-01-20T21:47:10.199Z,20.00
2023-01-20T21:49:58.446Z,19.00
2023-01-20T21:52:41.567Z,19.60
2023-01-20T21:55:10.671Z,20.70
2023-01-20T22:00:08.013Z,19.20
2023-01-20T22:02:44.753Z,21.20
2023-01-20T22:05:12.279Z,21.10
2023-01-20T22:07:39.204Z,22.40
2023-01-20T22:10:07.315Z,20.60
2023-01-20T22:12:35.180Z,22.40
2023-01-20T22:15:02.961Z,23.80
2023-01-20T22:17:32.030Z,23.70
2023-01-20T22:19:59.192Z,23.70
2023-01-20T22:22:26.139Z,22.80
2023-01-20T22:24:53.393Z,24.50
2023-01-20T22:27:20.439Z,25.20
2023-01-20T22:29:47.586Z,23.60
2023-01-20T22:32:14.540Z,24.00
2023-01-20T22:34:41.481Z,25.70
2023-01-20T22:37:09.358Z,25.80
2023-01-20T22:39:37.197Z,24.60
2023-01-20T22:42:04.371Z,26.10
2023-01-20T22:44:31.728Z,27.10
2023-01-20T22:46:59.187Z,27.00
2023-01-20T22:49:26.442Z,26.70
2023-01-20T22:51:54.670Z,27.70
2023-01-20T22:54:22.703Z,28.50
2023-01-20T22:56:49.946Z,29.60
2023-01-20T22:59:16.906Z,29.00
2023-01-20T23:01:43.946Z,31.30
2023-01-20T23:04:11.217Z,30.90
2023-01-20T23:06:38.864Z,30.70
2023-01-20T23:09:07.903Z,28.90
2023-01-20T23:11:35.853Z,29.80
2023-01-20T23:14:03.294Z,30.20
2023-01-20T23:16:30.899Z,31.00
2023-01-20T23:18:58.007Z,29.30
2023-01-20T23:21:25.467Z,30.20
2023-01-20T23:23:55.383Z,31.30
2023-01-20T23:26:24.576Z,29.30
2023-01-20T23:28:53.168Z,28.00
2023-01-20T23:31:20.593Z,31.20
2023-01-20T23:33:47.691Z,31.10
2023-01-20T23:36:23.952Z,29.40
2023-01-20T23:38:52.944Z,30.50
2023-01-20T23:41:20.401Z,24.30
2023-01-20T23:43:48.270Z,31.80
2023-01-20T23:46:15.728Z,30.20
2023-01-20T23:48:44.777Z,29.90
2023-01-20T23:51:11.856Z,29.90
2023-01-20T23:53:40.054Z,31.80
2023-01-20T23:56:18.401Z,29.30
2023-01-20T23:58:45.633Z,30.00
